createdAt,value
2023-10-06T00:00:14.502Z,94.52
2023-10-06T00:01:14.521Z,95.13
2023-10-06T00:02:14.483Z,95.03
2023-10-06T00:03:14.466Z,94.35
2023-10-06T00:04:14.486Z,94.76
2023-10-06T00:05:14.461Z,94.35
2023-10-06T00:06:14.466Z,94.46
2023-10-06T00:07:14.440Z,94.35
2023-10-06T00:08:14.461Z,94.97
2023-10-06T00:09:14.453Z,94.97
2023-10-06T00:10:14.417Z,94.62
2023-10-06T00:11:14.428Z,94.76
2023-10-06T00:12:14.482Z,94.76
2023-10-06T00:13:14.430Z,95.07
2023-10-06T00:14:14.384Z,95.07
2023-10-06T00:15:14.455Z,95.37
2023-10-06T00:16:14.397Z,95.17
2023-10-06T00:17:14.404Z,95.17
2023-10-06T00:18:14.375Z,95.17
2023-10-06T00:19:14.344Z,95.17
2023-10-06T00:20:14.337Z,94.97
2023-10-06T00:21:14.326Z,95.17
2023-10-06T00:22:14.321Z,95.37
2023-10-06T00:23:14.396Z,94.97
2023-10-06T00:24:14.293Z,95.37
2023-10-06T00:25:14.319Z,95.07
2023-10-06T00:26:14.283Z,95.52
2023-10-06T00:27:14.284Z,95.58
2023-10-06T00:28:14.294Z,95.48
2023-10-06T00:29:14.265Z,95.28
2023-10-06T00:30:15.259Z,95.01
2023-10-06T00:31:14.358Z,94.87
2023-10-06T00:32:14.334Z,95.12
2023-10-06T00:33:14.267Z,94.91
2023-10-06T00:34:14.226Z,94.66
2023-10-06T00:35:14.244Z,94.46
2023-10-06T00:36:14.211Z,94.91
2023-10-06T00:37:14.304Z,94.66
2023-10-06T00:38:14.319Z,94.76
2023-10-06T00:39:14.199Z,94.87
2023-10-06T00:40:14.192Z,94.97
2023-10-06T00:41:14.171Z,95.07
2023-10-06T00:42:14.186Z,95.07
2023-10-06T00:43:14.163Z,95.07
2023-10-06T00:44:14.144Z,95.58
2023-10-06T00:45:14.143Z,95.07
2023-10-06T00:46:14.157Z,95.52
2023-10-06T00:47:14.317Z,95.17
2023-10-06T00:48:14.201Z,94.97
2023-10-06T00:49:14.099Z,94.81
2023-10-06T00:50:14.119Z,94.66
2023-10-06T00:51:14.113Z,95.62
2023-10-06T00:52:14.116Z,95.12
2023-10-06T00:53:14.079Z,95.21
2023-10-06T00:54:14.066Z,95.07
2023-10-06T00:55:14.165Z,95.21
2023-10-06T00:56:14.185Z,95.01
2023-10-06T00:57:14.084Z,95.21
2023-10-06T00:58:14.027Z,95.12
2023-10-06T00:59:14.078Z,95.52
2023-10-06T01:00:14.024Z,95.62
2023-10-06T01:01:14.222Z,95.12
2023-10-06T01:02:14.041Z,95.32
2023-10-06T01:03:14.159Z,95.01
2023-10-06T01:04:13.983Z,95.12
2023-10-06T01:05:14.005Z,95.67
2023-10-06T01:06:14.043Z,95.52
2023-10-06T01:07:13.983Z,95.67
2023-10-06T01:08:13.969Z,95.32
2023-10-06T01:09:13.990Z,95.32
2023-10-06T01:10:13.973Z,95.52
2023-10-06T01:11:13.943Z,95.77
2023-10-06T01:12:13.967Z,95.57
2023-10-06T01:13:13.975Z,95.87
2023-10-06T01:14:13.913Z,95.67
2023-10-06T01:15:13.948Z,95.26
2023-10-06T01:16:13.936Z,95.57
2023-10-06T01:17:13.955Z,95.81
2023-10-06T01:18:13.887Z,95.87
2023-10-06T01:19:14.005Z,95.87
2023-10-06T01:20:13.897Z,96.22
2023-10-06T01:21:13.858Z,95.81
2023-10-06T01:22:13.856Z,95.41
2023-10-06T01:23:13.844Z,96.22
2023-10-06T01:24:13.859Z,96.33
2023-10-06T01:25:13.840Z,96.22
2023-10-06T01:26:13.820Z,96.43
2023-10-06T01:27:13.817Z,96.43
2023-10-06T01:28:14.053Z,96.63
2023-10-06T01:29:13.957Z,96.88
2023-10-06T01:30:13.790Z,96.68
2023-10-06T01:31:13.807Z,96.68
2023-10-06T01:32:13.797Z,96.73
2023-10-06T01:33:13.770Z,96.58
2023-10-06T01:34:14.174Z,97.08
2023-10-06T01:35:13.845Z,97.08
2023-10-06T01:36:13.750Z,97.08
2023-10-06T01:37:13.746Z,96.62
2023-10-06T01:38:13.728Z,96.62
2023-10-06T01:39:13.747Z,96.72
2023-10-06T01:40:13.709Z,97.08
2023-10-06T01:41:13.709Z,97.74
2023-10-06T01:42:13.697Z,97.64
2023-10-06T01:43:13.728Z,97.44
2023-10-06T01:44:13.741Z,97.64
2023-10-06T01:45:13.680Z,97.85
2023-10-06T01:46:13.781Z,97.85
2023-10-06T01:47:13.657Z,97.85
2023-10-06T01:48:13.672Z,97.85
2023-10-06T01:49:14.805Z,97.95
2023-10-06T01:50:14.641Z,98.05
2023-10-06T01:51:13.707Z,97.89
2023-10-06T01:52:13.621Z,97.69
2023-10-06T01:53:13.634Z,98.10
2023-10-06T01:54:13.601Z,98.40
2023-10-06T01:55:13.595Z,98.40
2023-10-06T01:56:13.640Z,98.40
2023-10-06T01:57:13.583Z,98.40
2023-10-06T01:58:13.606Z,98.30
2023-10-06T01:59:13.597Z,97.94
2023-10-06T02:00:13.557Z,97.94
2023-10-06T02:01:13.571Z,98.04
2023-10-06T02:02:13.687Z,98.24
2023-10-06T02:03:13.639Z,98.24
2023-10-06T02:04:13.525Z,98.35
2023-10-06T02:05:13.585Z,98.24
2023-10-06T02:06:13.510Z,98.29
2023-10-06T02:07:13.612Z,98.75
2023-10-06T02:08:13.528Z,98.60
2023-10-06T02:09:13.496Z,98.45
2023-10-06T02:10:13.480Z,98.49
2023-10-06T02:11:13.518Z,98.39
2023-10-06T02:12:13.494Z,98.49
2023-10-06T02:13:13.464Z,98.49
2023-10-06T02:14:13.445Z,99.21
2023-10-06T02:15:13.459Z,99.41
2023-10-06T02:16:13.428Z,99.11
2023-10-06T02:17:13.580Z,99.01
2023-10-06T02:18:13.472Z,98.60
2023-10-06T02:19:13.407Z,99.01
2023-10-06T02:20:13.399Z,99.41
2023-10-06T02:21:13.414Z,99.21
2023-10-06T02:22:13.408Z,99.26
2023-10-06T02:23:13.452Z,99.36
2023-10-06T02:24:13.372Z,99.31
2023-10-06T02:25:13.384Z,99.21
2023-10-06T02:26:13.462Z,99.31
2023-10-06T02:27:13.380Z,99.15
2023-10-06T02:28:13.337Z,99.36
2023-10-06T02:29:13.342Z,99.01
2023-10-06T02:30:13.327Z,99.26
2023-10-06T02:31:13.391Z,99.36
2023-10-06T02:32:13.327Z,99.26
2023-10-06T02:33:13.309Z,99.15
2023-10-06T02:34:13.301Z,99.41
2023-10-06T02:35:13.541Z,99.46
2023-10-06T02:36:13.298Z,99.30
2023-10-06T02:37:13.267Z,99.26
2023-10-06T02:38:13.259Z,99.51
2023-10-06T02:39:13.324Z,99.46
2023-10-06T02:40:13.249Z,99.20
2023-10-06T02:41:13.310Z,99.61
2023-10-06T02:42:13.229Z,99.30
2023-10-06T02:43:13.232Z,99.51
2023-10-06T02:44:14.218Z,99.51
2023-10-06T02:45:13.239Z,99.82
2023-10-06T02:46:13.219Z,99.55
2023-10-06T02:47:47.679Z,99.66
2023-10-06T02:48:13.196Z,99.71
2023-10-06T02:49:13.170Z,99.61
2023-10-06T02:50:13.201Z,99.82
2023-10-06T02:51:13.155Z,99.51
2023-10-06T02:52:13.153Z,99.76
2023-10-06T02:53:13.179Z,99.35
2023-10-06T02:54:13.144Z,99.10
2023-10-06T02:55:13.238Z,99.35
2023-10-06T02:56:13.168Z,99.35
2023-10-06T02:57:13.110Z,99.55
2023-10-06T02:58:13.119Z,99.45
2023-10-06T02:59:13.122Z,99.45
2023-10-06T03:00:14.117Z,99.91
2023-10-06T03:01:13.105Z,99.70
2023-10-06T03:02:13.124Z,99.99
2023-10-06T03:03:13.265Z,99.99
2023-10-06T03:04:13.115Z,99.99
2023-10-06T03:05:13.118Z,99.99
2023-10-06T03:06:13.058Z,99.99
2023-10-06T03:07:13.080Z,99.99
2023-10-06T03:08:13.133Z,99.99
2023-10-06T03:09:13.048Z,99.99
2023-10-06T03:10:13.024Z,99.99
2023-10-06T03:11:13.134Z,99.99
2023-10-06T03:12:13.049Z,99.99
2023-10-06T03:13:12.992Z,99.99
2023-10-06T03:14:13.052Z,99.99
2023-10-06T03:15:12.982Z,99.99
2023-10-06T03:16:12.969Z,99.99
2023-10-06T03:17:13.093Z,99.99
2023-10-06T03:18:14.044Z,99.99
2023-10-06T03:19:12.973Z,99.99
2023-10-06T03:20:13.001Z,99.99
2023-10-06T03:21:12.949Z,99.99
2023-10-06T03:22:12.933Z,99.99
2023-10-06T03:23:13.000Z,99.99
2023-10-06T03:24:12.917Z,99.99
2023-10-06T03:25:12.909Z,99.99
2023-10-06T03:26:12.935Z,99.99
2023-10-06T03:27:12.962Z,99.99
2023-10-06T03:28:12.915Z,99.99
2023-10-06T03:29:13.122Z,99.99
2023-10-06T03:30:12.865Z,99.99
2023-10-06T03:31:12.940Z,99.99
2023-10-06T03:32:12.974Z,99.99
2023-10-06T03:33:12.860Z,99.99
2023-10-06T03:34:12.826Z,99.99
2023-10-06T03:35:12.984Z,99.99
2023-10-06T03:36:12.812Z,99.99
2023-10-06T03:37:12.857Z,99.99
2023-10-06T03:38:12.811Z,99.99
2023-10-06T03:39:13.165Z,99.99
2023-10-06T03:40:12.791Z,99.99
2023-10-06T03:41:12.796Z,99.99
2023-10-06T03:42:12.801Z,99.99
2023-10-06T03:43:12.851Z,99.99
2023-10-06T03:44:12.803Z,99.99
2023-10-06T03:45:12.745Z,99.99
2023-10-06T03:46:12.786Z,99.99
2023-10-06T03:47:12.817Z,99.99
2023-10-06T03:48:12.766Z,99.99
2023-10-06T03:49:12.711Z,99.99
2023-10-06T03:50:12.744Z,99.99
2023-10-06T03:51:12.740Z,99.99
2023-10-06T03:52:12.716Z,99.99
2023-10-06T03:53:12.709Z,99.99
2023-10-06T03:54:13.686Z,99.99
2023-10-06T03:55:12.670Z,99.99
2023-10-06T03:56:12.742Z,99.99
2023-10-06T03:57:12.662Z,99.99
2023-10-06T03:58:12.680Z,99.99
2023-10-06T03:59:12.767Z,99.99
2023-10-06T04:00:12.627Z,99.99
2023-10-06T04:01:12.662Z,99.99
2023-10-06T04:02:12.660Z,99.99
2023-10-06T04:03:12.664Z,99.99
2023-10-06T04:04:12.633Z,99.99
2023-10-06T04:05:12.647Z,99.99
2023-10-06T04:06:12.617Z,99.99
2023-10-06T04:07:12.622Z,99.99
2023-10-06T04:08:12.637Z,99.99
2023-10-06T04:09:12.621Z,99.99
2023-10-06T04:10:12.595Z,99.99
2023-10-06T04:11:12.560Z,99.99
2023-10-06T04:12:12.542Z,99.99
2023-10-06T04:13:12.588Z,99.99
2023-10-06T04:14:12.543Z,99.99
2023-10-06T04:15:12.648Z,99.99
2023-10-06T04:16:12.514Z,99.99
2023-10-06T04:17:12.506Z,99.99
2023-10-06T04:18:12.498Z,99.99
2023-10-06T04:19:12.496Z,99.99
2023-10-06T04:20:12.531Z,99.99
2023-10-06T04:21:12.477Z,99.99
2023-10-06T04:22:12.470Z,99.99
2023-10-06T04:23:12.539Z,99.99
2023-10-06T04:24:12.461Z,99.99
2023-10-06T04:25:12.470Z,99.99
2023-10-06T04:26:12.472Z,99.99
2023-10-06T04:27:12.434Z,99.99
2023-10-06T04:28:12.425Z,99.99
2023-10-06T04:29:12.525Z,99.99
2023-10-06T04:30:12.431Z,99.99
2023-10-06T04:31:12.500Z,99.99
2023-10-06T04:32:12.430Z,99.99
2023-10-06T04:33:12.393Z,99.99
2023-10-06T04:34:12.407Z,99.99
2023-10-06T04:35:12.428Z,99.99
2023-10-06T04:36:12.357Z,99.99
2023-10-06T04:37:12.368Z,99.99
2023-10-06T04:38:12.358Z,99.99
2023-10-06T04:39:12.368Z,99.99
2023-10-06T04:40:12.329Z,99.99
2023-10-06T04:41:12.361Z,99.99
2023-10-06T04:42:12.328Z,99.99
2023-10-06T04:43:12.310Z,99.99
2023-10-06T04:44:12.345Z,99.99
2023-10-06T04:45:12.297Z,99.99
2023-10-06T04:46:12.308Z,99.99
2023-10-06T04:47:12.391Z,99.99
2023-10-06T04:48:12.295Z,99.99
2023-10-06T04:49:12.289Z,99.99
2023-10-06T04:50:12.291Z,99.99
2023-10-06T04:51:12.259Z,99.99
2023-10-06T04:52:12.304Z,99.99
2023-10-06T04:53:12.358Z,99.99
2023-10-06T04:54:12.239Z,99.99
2023-10-06T04:55:12.228Z,99.99
2023-10-06T04:56:12.293Z,99.99
2023-10-06T04:57:12.232Z,99.99
2023-10-06T04:58:12.219Z,99.99
2023-10-06T04:59:12.441Z,99.99
2023-10-06T05:00:12.188Z,99.99
2023-10-06T05:01:12.202Z,99.99
2023-10-06T05:02:12.345Z,99.99
2023-10-06T05:03:12.750Z,99.99
2023-10-06T05:04:12.152Z,99.99
2023-10-06T05:05:12.224Z,99.99
2023-10-06T05:06:12.137Z,99.99
2023-10-06T05:07:12.171Z,99.99
2023-10-06T05:08:12.162Z,99.99
2023-10-06T05:09:12.118Z,99.99
2023-10-06T05:10:12.117Z,99.99
2023-10-06T05:11:12.627Z,99.99
2023-10-06T05:12:13.136Z,99.99
2023-10-06T05:13:12.090Z,99.99
2023-10-06T05:14:12.080Z,99.99
2023-10-06T05:15:12.070Z,99.99
2023-10-06T05:16:12.108Z,99.99
2023-10-06T05:17:12.087Z,99.99
2023-10-06T05:18:12.068Z,99.99
2023-10-06T05:19:12.107Z,99.99
2023-10-06T05:20:12.083Z,99.99
2023-10-06T05:21:12.040Z,99.99
2023-10-06T05:22:12.016Z,99.99
2023-10-06T05:23:12.067Z,99.99
2023-10-06T05:24:11.995Z,99.99
2023-10-06T05:25:11.991Z,99.99
2023-10-06T05:26:12.267Z,99.99
2023-10-06T05:27:11.969Z,99.99
2023-10-06T05:28:12.002Z,99.99
2023-10-06T05:29:12.976Z,99.99
2023-10-06T05:30:11.970Z,99.99
2023-10-06T05:31:12.245Z,99.99
2023-10-06T05:32:12.055Z,99.99
2023-10-06T05:33:11.955Z,99.99
2023-10-06T05:34:11.950Z,99.99
2023-10-06T05:35:12.031Z,99.99
2023-10-06T05:36:12.437Z,99.99
2023-10-06T05:37:11.892Z,99.99
2023-10-06T05:38:11.921Z,99.99
2023-10-06T05:39:11.883Z,99.99
2023-10-06T05:40:11.894Z,99.99
2023-10-06T05:41:11.918Z,99.99
2023-10-06T05:42:11.854Z,99.99
2023-10-06T05:43:11.852Z,99.99
2023-10-06T05:44:11.907Z,99.99
2023-10-06T05:45:11.914Z,99.99
2023-10-06T05:46:11.867Z,99.99
2023-10-06T05:47:11.874Z,99.99
2023-10-06T05:48:11.826Z,99.99
2023-10-06T05:49:11.815Z,99.99
2023-10-06T05:50:11.892Z,99.99
2023-10-06T05:51:12.524Z,99.99
2023-10-06T05:52:12.782Z,99.99
2023-10-06T05:53:11.797Z,99.99
2023-10-06T05:54:11.768Z,99.99
2023-10-06T05:55:11.790Z,99.99
2023-10-06T05:56:11.934Z,99.99
2023-10-06T05:57:11.745Z,99.99
2023-10-06T05:58:11.737Z,99.99
2023-10-06T05:59:11.984Z,99.99
2023-10-06T06:00:11.756Z,99.99
2023-10-06T06:01:12.019Z,99.99
2023-10-06T06:02:11.717Z,99.99
2023-10-06T06:03:11.736Z,99.99
2023-10-06T06:04:11.721Z,99.99
2023-10-06T06:05:11.773Z,99.99
2023-10-06T06:06:11.684Z,99.99
2023-10-06T06:07:11.744Z,99.99
2023-10-06T06:08:11.693Z,99.99
2023-10-06T06:09:11.707Z,99.99
2023-10-06T06:10:11.638Z,99.99
2023-10-06T06:11:11.683Z,99.99
2023-10-06T06:12:11.634Z,99.99
2023-10-06T06:13:11.619Z,99.99
2023-10-06T06:14:17.792Z,99.99
2023-10-06T06:15:13.618Z,99.99
2023-10-06T06:16:11.771Z,99.99
2023-10-06T06:17:11.644Z,99.99
2023-10-06T06:18:11.602Z,99.99
2023-10-06T06:19:11.601Z,99.99
2023-10-06T06:20:18.256Z,99.99
2023-10-06T06:21:13.685Z,99.99
2023-10-06T06:22:11.561Z,99.99
2023-10-06T06:23:11.704Z,99.99
2023-10-06T06:24:11.575Z,99.99
2023-10-06T06:25:11.534Z,99.99
2023-10-06T06:26:11.569Z,99.99
2023-10-06T06:27:11.520Z,99.99
2023-10-06T06:28:11.536Z,99.99
2023-10-06T06:29:11.803Z,99.99
2023-10-06T06:30:11.489Z,99.99
2023-10-06T06:31:11.495Z,99.99
2023-10-06T06:32:11.483Z,99.99
2023-10-06T06:33:11.544Z,99.99
2023-10-06T06:34:11.482Z,99.75
2023-10-06T06:35:11.545Z,99.69
2023-10-06T06:36:11.448Z,99.34
2023-10-06T06:37:11.441Z,99.50
2023-10-06T06:38:11.544Z,99.03
2023-10-06T06:39:11.568Z,99.13
2023-10-06T06:40:11.432Z,99.60
2023-10-06T06:41:11.503Z,99.19
2023-10-06T06:42:11.435Z,98.58
2023-10-06T06:43:11.413Z,98.37
2023-10-06T06:44:11.433Z,98.27
2023-10-06T06:45:11.369Z,98.63
2023-10-06T06:46:11.395Z,98.27
2023-10-06T06:47:11.401Z,97.96
2023-10-06T06:48:11.360Z,98.16
2023-10-06T06:49:11.346Z,98.68
2023-10-06T06:50:13.687Z,98.12
2023-10-06T06:51:12.329Z,97.65
2023-10-06T06:52:11.346Z,97.75
2023-10-06T06:53:11.384Z,97.65
2023-10-06T06:54:11.309Z,98.27
2023-10-06T06:55:11.378Z,97.96
2023-10-06T06:56:11.413Z,97.96
2023-10-06T06:57:11.310Z,98.02
2023-10-06T06:58:11.277Z,97.86
2023-10-06T06:59:11.439Z,97.96
2023-10-06T07:00:11.284Z,97.86
2023-10-06T07:01:11.319Z,97.65
2023-10-06T07:02:11.379Z,97.86
2023-10-06T07:03:11.289Z,97.86
2023-10-06T07:04:11.233Z,97.81
2023-10-06T07:05:11.268Z,97.71
2023-10-06T07:06:11.239Z,98.02
2023-10-06T07:07:11.213Z,97.81
2023-10-06T07:08:11.249Z,97.09
2023-10-06T07:09:11.173Z,97.09
2023-10-06T07:10:12.227Z,97.20
2023-10-06T07:11:11.300Z,97.20
2023-10-06T07:12:11.193Z,96.54
2023-10-06T07:13:11.156Z,96.64
2023-10-06T07:14:11.171Z,96.74
2023-10-06T07:15:11.188Z,96.64
2023-10-06T07:16:11.210Z,96.28
2023-10-06T07:17:11.199Z,96.54
2023-10-06T07:18:11.278Z,96.23
2023-10-06T07:19:11.145Z,96.19
2023-10-06T07:20:11.190Z,96.19
2023-10-06T07:21:11.213Z,95.98
2023-10-06T07:22:11.100Z,95.94
2023-10-06T07:23:11.094Z,95.47
2023-10-06T07:24:11.088Z,95.98
2023-10-06T07:25:11.108Z,96.29
2023-10-06T07:26:11.083Z,95.73
2023-10-06T07:27:11.122Z,96.04
2023-10-06T07:28:11.038Z,95.73
2023-10-06T07:29:11.200Z,96.04
2023-10-06T07:30:11.026Z,95.43
2023-10-06T07:31:11.036Z,95.59
2023-10-06T07:32:11.047Z,95.22
2023-10-06T07:33:11.028Z,95.89
2023-10-06T07:34:11.268Z,95.02
2023-10-06T07:35:12.007Z,95.28
2023-10-06T07:36:10.983Z,94.93
2023-10-06T07:37:10.985Z,94.42
2023-10-06T07:38:11.041Z,94.52
2023-10-06T07:39:11.029Z,94.21
2023-10-06T07:40:10.950Z,93.80
2023-10-06T07:41:10.995Z,93.60
2023-10-06T07:42:10.930Z,93.60
2023-10-06T07:43:11.056Z,93.35
2023-10-06T07:44:11.054Z,93.66
2023-10-06T07:45:10.905Z,93.31
2023-10-06T07:46:10.928Z,93.51
2023-10-06T07:47:10.913Z,92.39
2023-10-06T07:48:11.172Z,92.39
2023-10-06T07:49:11.140Z,91.74
2023-10-06T07:50:10.917Z,92.04
2023-10-06T07:51:10.871Z,90.81
2023-10-06T07:52:10.880Z,90.51
2023-10-06T07:53:10.954Z,90.51
2023-10-06T07:54:11.012Z,90.81
2023-10-06T07:55:10.845Z,90.36
2023-10-06T07:56:10.911Z,90.26
2023-10-06T07:57:10.838Z,91.79
2023-10-06T07:58:10.819Z,90.63
2023-10-06T07:59:10.968Z,90.32
2023-10-06T08:00:10.805Z,89.57
2023-10-06T08:01:10.808Z,89.67
2023-10-06T08:02:10.894Z,89.57
2023-10-06T08:03:10.815Z,88.96
2023-10-06T08:04:10.952Z,89.01
2023-10-06T08:05:10.895Z,88.20
2023-10-06T08:06:10.782Z,88.36
2023-10-06T08:07:10.787Z,88.46
2023-10-06T08:08:10.842Z,88.53
2023-10-06T08:09:10.723Z,87.71
2023-10-06T08:10:10.721Z,87.57
2023-10-06T08:11:10.992Z,86.45
2023-10-06T08:12:10.702Z,86.65
2023-10-06T08:13:10.697Z,86.65
2023-10-06T08:14:10.830Z,86.15
2023-10-06T08:15:10.858Z,86.51
2023-10-06T08:16:10.719Z,86.82
2023-10-06T08:17:10.708Z,85.60
2023-10-06T08:18:10.686Z,85.60
2023-10-06T08:19:10.652Z,85.70
2023-10-06T08:20:10.799Z,85.60
2023-10-06T08:21:10.664Z,85.55
2023-10-06T08:22:10.637Z,85.70
2023-10-06T08:23:10.678Z,85.46
2023-10-06T08:24:10.790Z,85.66
2023-10-06T08:25:10.635Z,86.16
2023-10-06T08:26:10.743Z,85.62
2023-10-06T08:27:10.590Z,84.70
2023-10-06T08:28:10.579Z,84.74
2023-10-06T08:29:10.612Z,84.34
2023-10-06T08:30:10.610Z,85.66
2023-10-06T08:31:10.679Z,84.70
2023-10-06T08:32:10.616Z,84.87
2023-10-06T08:33:10.901Z,84.40
2023-10-06T08:34:10.717Z,84.50
2023-10-06T08:35:10.658Z,85.41
2023-10-06T08:36:10.510Z,85.58
2023-10-06T08:37:11.503Z,84.60
2023-10-06T08:38:10.654Z,84.56
2023-10-06T08:39:10.536Z,84.22
2023-10-06T08:40:10.482Z,83.81
2023-10-06T08:41:10.616Z,83.75
2023-10-06T08:42:10.469Z,83.71
2023-10-06T08:43:10.466Z,83.77
2023-10-06T08:44:10.641Z,83.37
2023-10-06T08:45:10.459Z,83.26
2023-10-06T08:46:10.543Z,82.01
2023-10-06T08:47:26.175Z,82.25
2023-10-06T08:48:12.618Z,82.25
2023-10-06T08:49:10.541Z,82.42
2023-10-06T08:50:10.446Z,82.66
2023-10-06T08:51:10.400Z,82.05
2023-10-06T08:52:10.396Z,82.56
2023-10-06T08:53:10.463Z,82.96
2023-10-06T08:54:10.474Z,82.72
2023-10-06T08:55:10.373Z,82.58
2023-10-06T08:56:10.376Z,81.46
2023-10-06T08:57:10.353Z,81.87
2023-10-06T08:58:10.374Z,81.23
2023-10-06T08:59:10.371Z,81.10
2023-10-06T09:00:10.330Z,81.87
2023-10-06T09:01:10.377Z,81.81
2023-10-06T09:02:10.376Z,82.42
2023-10-06T09:03:11.285Z,82.21
2023-10-06T09:04:11.605Z,82.25
2023-10-06T09:05:10.377Z,82.25
2023-10-06T09:06:10.293Z,82.35
2023-10-06T09:07:10.291Z,82.76
2023-10-06T09:08:11.327Z,82.35
2023-10-06T09:09:10.274Z,83.17
2023-10-06T09:10:10.254Z,82.76
2023-10-06T09:11:10.254Z,82.17
2023-10-06T09:12:10.272Z,82.68
2023-10-06T09:13:10.235Z,80.82
2023-10-06T09:14:10.549Z,81.32
2023-10-06T09:15:10.235Z,81.32
2023-10-06T09:16:10.247Z,80.98
2023-10-06T09:17:10.286Z,80.68
2023-10-06T09:18:10.233Z,80.11
2023-10-06T09:19:10.312Z,80.88
2023-10-06T09:20:20.182Z,79.97
2023-10-06T09:21:12.164Z,80.47
2023-10-06T09:22:10.193Z,80.04
2023-10-06T09:23:10.195Z,80.58
2023-10-06T09:24:10.430Z,79.93
2023-10-06T09:25:10.137Z,79.57
2023-10-06T09:26:10.245Z,79.67
2023-10-06T09:27:10.356Z,80.18
2023-10-06T09:28:10.131Z,80.18
2023-10-06T09:29:10.192Z,80.38
2023-10-06T09:30:10.111Z,80.18
2023-10-06T09:31:10.216Z,79.87
2023-10-06T09:32:10.105Z,79.87
2023-10-06T09:33:10.092Z,80.74
2023-10-06T09:34:10.993Z,79.69
2023-10-06T09:35:10.216Z,78.99
2023-10-06T09:36:10.125Z,79.59
2023-10-06T09:37:11.040Z,79.08
2023-10-06T09:38:10.056Z,79.29
2023-10-06T09:39:10.032Z,79.59
2023-10-06T09:40:10.063Z,78.85
2023-10-06T09:41:10.130Z,78.85
2023-10-06T09:42:10.004Z,78.34
2023-10-06T09:43:10.052Z,79.05
2023-10-06T09:44:10.206Z,79.55
2023-10-06T09:45:10.041Z,78.85
2023-10-06T09:46:10.140Z,78.71
2023-10-06T09:47:10.155Z,78.50
2023-10-06T09:48:10.056Z,78.61
2023-10-06T09:49:10.101Z,77.60
2023-10-06T09:50:10.001Z,78.10
2023-10-06T09:51:09.944Z,77.36
2023-10-06T09:52:09.934Z,77.39
2023-10-06T09:53:09.972Z,77.39
2023-10-06T09:54:10.079Z,77.97
2023-10-06T09:55:10.618Z,77.29
2023-10-06T09:56:09.913Z,77.50
2023-10-06T09:57:09.911Z,77.29
2023-10-06T09:58:09.912Z,78.00
2023-10-06T09:59:09.908Z,77.60
2023-10-06T10:00:09.871Z,77.50
2023-10-06T10:01:09.941Z,78.00
2023-10-06T10:02:10.009Z,78.10
2023-10-06T10:03:09.930Z,78.71
2023-10-06T10:04:10.042Z,78.00
2023-10-06T10:05:09.840Z,78.81
2023-10-06T10:06:09.836Z,78.85
2023-10-06T10:07:09.900Z,79.15
2023-10-06T10:08:09.835Z,78.61
2023-10-06T10:09:09.826Z,79.01
2023-10-06T10:10:09.790Z,78.71
2023-10-06T10:11:09.837Z,79.08
2023-10-06T10:12:09.802Z,78.06
2023-10-06T10:13:09.798Z,77.42
2023-10-06T10:14:10.073Z,77.12
2023-10-06T10:15:09.753Z,78.23
2023-10-06T10:16:09.782Z,77.19
2023-10-06T10:17:09.808Z,77.59
2023-10-06T10:18:09.770Z,77.28
2023-10-06T10:19:09.756Z,77.19
2023-10-06T10:20:09.745Z,76.68
2023-10-06T10:21:09.704Z,76.44
2023-10-06T10:22:09.700Z,76.34
2023-10-06T10:23:09.801Z,75.94
2023-10-06T10:24:49.462Z,75.63
2023-10-06T10:25:24.602Z,75.54
2023-10-06T10:26:11.686Z,77.75
2023-10-06T10:27:09.688Z,76.64
2023-10-06T10:28:09.682Z,76.95
2023-10-06T10:29:09.687Z,76.34
2023-10-06T10:30:09.646Z,76.00
2023-10-06T10:31:09.660Z,77.04
2023-10-06T10:32:09.664Z,75.43
2023-10-06T10:33:09.691Z,75.70
2023-10-06T10:34:24.468Z,75.84
2023-10-06T10:35:11.651Z,75.90
2023-10-06T10:36:09.621Z,75.56
2023-10-06T10:37:09.611Z,74.86
2023-10-06T10:38:09.582Z,74.96
2023-10-06T10:39:09.648Z,74.49
2023-10-06T10:40:09.555Z,75.06
2023-10-06T10:41:09.611Z,73.52
2023-10-06T10:42:09.564Z,72.51
2023-10-06T10:43:10.623Z,73.98
2023-10-06T10:44:19.098Z,72.07
2023-10-06T10:45:11.521Z,71.97
2023-10-06T10:46:09.622Z,71.97
2023-10-06T10:47:09.551Z,71.94
2023-10-06T10:48:09.551Z,71.13
2023-10-06T10:49:09.480Z,71.80
2023-10-06T10:50:09.518Z,67.31
2023-10-06T10:51:09.502Z,67.03
2023-10-06T10:52:09.457Z,67.27
2023-10-06T10:53:09.485Z,68.68
2023-10-06T10:54:10.778Z,68.58
2023-10-06T10:55:09.537Z,69.85
2023-10-06T10:56:09.516Z,70.46
2023-10-06T10:57:09.435Z,70.23
2023-10-06T10:58:09.420Z,67.00
2023-10-06T10:59:09.482Z,65.70
2023-10-06T11:00:09.412Z,66.10
2023-10-06T11:01:09.393Z,66.40
2023-10-06T11:02:09.466Z,65.59
2023-10-06T11:03:10.191Z,65.87
2023-10-06T11:04:09.532Z,64.53
2023-10-06T11:05:09.407Z,63.96
2023-10-06T11:06:09.369Z,63.35
2023-10-06T11:07:09.400Z,63.56
2023-10-06T11:08:09.415Z,63.68
2023-10-06T11:09:09.345Z,64.39
2023-10-06T11:10:09.403Z,64.76
2023-10-06T11:11:09.429Z,64.66
2023-10-06T11:12:23.561Z,64.33
2023-10-06T11:13:11.288Z,64.93
2023-10-06T11:14:09.586Z,63.42
2023-10-06T11:15:10.230Z,63.02
2023-10-06T11:16:09.289Z,63.59
2023-10-06T11:17:09.318Z,63.70
2023-10-06T11:18:09.327Z,64.90
2023-10-06T11:19:09.363Z,63.79
2023-10-06T11:20:09.263Z,63.09
2023-10-06T11:21:09.860Z,63.32
2023-10-06T11:22:09.226Z,63.05
2023-10-06T11:23:09.233Z,63.93
2023-10-06T11:24:09.438Z,63.76
2023-10-06T11:25:09.205Z,63.85
2023-10-06T11:26:09.231Z,64.66
2023-10-06T11:27:09.256Z,65.06
2023-10-06T11:28:09.787Z,64.26
2023-10-06T11:29:09.214Z,64.13
2023-10-06T11:30:09.171Z,63.76
2023-10-06T11:31:09.203Z,64.69
2023-10-06T11:32:09.173Z,64.99
2023-10-06T11:33:09.234Z,63.79
2023-10-06T11:34:09.283Z,64.39
2023-10-06T11:35:09.212Z,65.19
2023-10-06T11:36:09.118Z,64.26
2023-10-06T11:37:09.116Z,63.76
2023-10-06T11:38:09.160Z,63.65
2023-10-06T11:39:09.083Z,64.46
2023-10-06T11:40:09.086Z,65.26
2023-10-06T11:41:09.141Z,64.46
2023-10-06T11:42:09.065Z,64.06
2023-10-06T11:43:09.949Z,63.76
2023-10-06T11:44:09.217Z,63.73
2023-10-06T11:45:09.043Z,63.65
2023-10-06T11:46:09.149Z,64.89
2023-10-06T11:47:09.136Z,65.50
2023-10-06T11:48:09.224Z,65.26
2023-10-06T11:49:09.024Z,64.79
2023-10-06T11:50:10.675Z,64.89
2023-10-06T11:51:09.358Z,64.26
2023-10-06T11:52:09.025Z,64.36
2023-10-06T11:53:09.016Z,63.56
2023-10-06T11:54:09.139Z,64.23
2023-10-06T11:55:08.990Z,63.76
2023-10-06T11:56:09.332Z,63.42
2023-10-06T11:57:08.989Z,64.56
2023-10-06T11:58:08.941Z,65.06
2023-10-06T11:59:09.008Z,64.86
2023-10-06T12:00:08.926Z,63.65
2023-10-06T12:01:08.950Z,64.46
2023-10-06T12:02:09.033Z,63.89
2023-10-06T12:03:09.028Z,64.69
2023-10-06T12:04:09.167Z,65.26
2023-10-06T12:05:08.964Z,64.86
2023-10-06T12:06:08.914Z,64.56
2023-10-06T12:07:08.873Z,63.12
2023-10-06T12:08:08.886Z,63.05
2023-10-06T12:09:08.863Z,64.16
2023-10-06T12:10:08.847Z,64.46
2023-10-06T12:11:08.897Z,63.85
2023-10-06T12:12:08.840Z,63.82
2023-10-06T12:13:08.827Z,63.62
2023-10-06T12:14:09.035Z,64.06
2023-10-06T12:15:08.918Z,64.86
2023-10-06T12:16:08.847Z,64.36
2023-10-06T12:17:08.872Z,64.36
2023-10-06T12:18:08.810Z,63.45
2023-10-06T12:19:08.799Z,63.65
2023-10-06T12:20:08.876Z,64.76
2023-10-06T12:21:08.782Z,65.36
2023-10-06T12:22:08.774Z,63.76
2023-10-06T12:23:08.789Z,63.25
2023-10-06T12:24:08.959Z,64.26
2023-10-06T12:25:08.774Z,63.76
2023-10-06T12:26:08.903Z,63.82
2023-10-06T12:27:08.730Z,63.15
2023-10-06T12:28:08.724Z,63.82
2023-10-06T12:29:08.757Z,63.12
2023-10-06T12:30:08.740Z,63.62
2023-10-06T12:31:08.855Z,63.42
2023-10-06T12:32:08.724Z,63.22
2023-10-06T12:33:08.728Z,63.15
2023-10-06T12:34:08.905Z,63.45
2023-10-06T12:35:08.678Z,63.25
2023-10-06T12:36:08.657Z,64.36
2023-10-06T12:37:08.672Z,63.65
2023-10-06T12:38:08.668Z,63.45
2023-10-06T12:39:08.658Z,63.76
2023-10-06T12:40:08.621Z,63.45
2023-10-06T12:41:08.815Z,64.36
2023-10-06T12:42:08.613Z,64.16
2023-10-06T12:43:08.632Z,64.36
2023-10-06T12:44:08.874Z,64.26
2023-10-06T12:45:08.599Z,63.65
2023-10-06T12:46:08.691Z,64.46
2023-10-06T12:47:08.684Z,64.26
2023-10-06T12:48:08.653Z,63.62
2023-10-06T12:49:08.706Z,63.42
2023-10-06T12:50:08.629Z,63.56
2023-10-06T12:51:08.557Z,64.46
2023-10-06T12:52:11.737Z,63.62